sensor_id;sensor_type;location;lat;lon;timestamp;P1;durP1;ratioP1;P2;durP2;ratioP2
66893;SDS011;53801;55.786;49.142;2023-08-06T00:01:47;14.43;;;7.57;;
66893;SDS011;53801;55.786;49.142;2023-08-06T00:04:12;15.53;;;7.83;;
66893;SDS011;53801;55.786;49.142;2023-08-06T00:06:38;20.67;;;8.33;;
66893;SDS011;53801;55.786;49.142;2023-08-06T00:09:03;13.23;;;8.07;;
66893;SDS011;53801;55.786;49.142;2023-08-06T00:11:29;17.83;;;8.77;;
66893;SDS011;53801;55.786;49.142;2023-08-06T00:13:54;17.38;;;8.73;;
66893;SDS011;53801;55.786;49.142;2023-08-06T00:16:20;19.97;;;8.83;;
66893;SDS011;53801;55.786;49.142;2023-08-06T00:18:45;16.23;;;8.40;;
66893;SDS011;53801;55.786;49.142;2023-08-06T00:21:10;15.10;;;7.85;;
66893;SDS011;53801;55.786;49.142;2023-08-06T00:23:37;14.53;;;7.97;;
66893;SDS011;53801;55.786;49.142;2023-08-06T00:26:07;14.43;;;7.38;;
66893;SDS011;53801;55.786;49.142;2023-08-06T00:28:32;13.97;;;7.67;;
66893;SDS011;53801;55.786;49.142;2023-08-06T00:31:00;13.40;;;8.10;;
66893;SDS011;53801;55.786;49.142;2023-08-06T00:33:29;13.90;;;7.40;;
66893;SDS011;53801;55.786;49.142;2023-08-06T00:35:55;12.43;;;7.30;;
66893;SDS011;53801;55.786;49.142;2023-08-06T00:38:20;14.47;;;7.13;;
66893;SDS011;53801;55.786;49.142;2023-08-06T00:40:46;10.50;;;6.80;;
66893;SDS011;53801;55.786;49.142;2023-08-06T00:43:11;14.07;;;6.70;;
66893;SDS011;53801;55.786;49.142;2023-08-06T00:45:38;11.03;;;6.67;;
66893;SDS011;53801;55.786;49.142;2023-08-06T00:48:04;13.88;;;6.90;;
66893;SDS011;53801;55.786;49.142;2023-08-06T00:50:30;10.53;;;7.07;;
66893;SDS011;53801;55.786;49.142;2023-08-06T00:52:55;10.40;;;7.00;;
66893;SDS011;53801;55.786;49.142;2023-08-06T00:55:21;13.07;;;6.47;;
66893;SDS011;53801;55.786;49.142;2023-08-06T00:57:46;10.23;;;6.73;;
66893;SDS011;53801;55.786;49.142;2023-08-06T01:00:12;9.85;;;6.55;;
66893;SDS011;53801;55.786;49.142;2023-08-06T01:02:38;10.07;;;6.40;;
66893;SDS011;53801;55.786;49.142;2023-08-06T01:05:03;12.02;;;6.75;;
66893;SDS011;53801;55.786;49.142;2023-08-06T01:07:37;9.43;;;6.30;;
66893;SDS011;53801;55.786;49.142;2023-08-06T01:13:14;10.40;;;6.40;;
66893;SDS011;53801;55.786;49.142;2023-08-06T01:15:46;11.68;;;6.00;;
66893;SDS011;53801;55.786;49.142;2023-08-06T01:18:11;10.10;;;6.60;;
66893;SDS011;53801;55.786;49.142;2023-08-06T01:20:37;12.63;;;6.50;;
66893;SDS011;53801;55.786;49.142;2023-08-06T01:23:02;10.57;;;5.90;;
66893;SDS011;53801;55.786;49.142;2023-08-06T01:25:30;10.63;;;7.63;;
66893;SDS011;53801;55.786;49.142;2023-08-06T01:28:00;10.50;;;6.65;;
66893;SDS011;53801;55.786;49.142;2023-08-06T01:30:27;9.30;;;6.50;;
66893;SDS011;53801;55.786;49.142;2023-08-06T01:32:57;10.18;;;6.63;;
66893;SDS011;53801;55.786;49.142;2023-08-06T01:35:23;8.15;;;5.93;;
66893;SDS011;53801;55.786;49.142;2023-08-06T01:37:52;8.93;;;6.07;;
66893;SDS011;53801;55.786;49.142;2023-08-06T01:40:18;8.10;;;6.05;;
66893;SDS011;53801;55.786;49.142;2023-08-06T01:42:45;10.05;;;6.35;;
66893;SDS011;53801;55.786;49.142;2023-08-06T01:45:10;10.10;;;6.30;;
66893;SDS011;53801;55.786;49.142;2023-08-06T01:47:36;10.43;;;6.80;;
66893;SDS011;53801;55.786;49.142;2023-08-06T01:50:01;8.32;;;6.15;;
66893;SDS011;53801;55.786;49.142;2023-08-06T01:52:27;9.70;;;6.33;;
66893;SDS011;53801;55.786;49.142;2023-08-06T01:54:53;10.75;;;7.05;;
66893;SDS011;53801;55.786;49.142;2023-08-06T01:57:18;10.83;;;7.03;;
66893;SDS011;53801;55.786;49.142;2023-08-06T01:59:44;11.50;;;7.77;;
66893;SDS011;53801;55.786;49.142;2023-08-06T02:02:09;11.68;;;7.30;;
66893;SDS011;53801;55.786;49.142;2023-08-06T02:04:35;12.10;;;6.93;;
66893;SDS011;53801;55.786;49.142;2023-08-06T02:07:00;9.97;;;6.63;;
66893;SDS011;53801;55.786;49.142;2023-08-06T02:09:26;11.53;;;7.10;;
66893;SDS011;53801;55.786;49.142;2023-08-06T02:11:51;11.73;;;7.22;;
66893;SDS011;53801;55.786;49.142;2023-08-06T02:14:17;9.07;;;6.73;;
66893;SDS011;53801;55.786;49.142;2023-08-06T02:16:42;13.63;;;7.43;;
66893;SDS011;53801;55.786;49.142;2023-08-06T02:19:08;12.50;;;8.00;;
66893;SDS011;53801;55.786;49.142;2023-08-06T02:21:33;12.23;;;7.90;;
66893;SDS011;53801;55.786;49.142;2023-08-06T02:23:59;11.33;;;7.20;;
66893;SDS011;53801;55.786;49.142;2023-08-06T02:26:24;13.48;;;8.18;;
66893;SDS011;53801;55.786;49.142;2023-08-06T02:28:50;11.87;;;8.43;;
66893;SDS011;53801;55.786;49.142;2023-08-06T02:31:15;14.80;;;8.93;;
66893;SDS011;53801;55.786;49.142;2023-08-06T02:33:42;16.60;;;8.60;;
66893;SDS011;53801;55.786;49.142;2023-08-06T02:36:08;16.77;;;9.00;;
66893;SDS011;53801;55.786;49.142;2023-08-06T02:38:33;15.67;;;8.87;;
66893;SDS011;53801;55.786;49.142;2023-08-06T02:40:59;15.77;;;8.90;;
66893;SDS011;53801;55.786;49.142;2023-08-06T02:43:27;14.10;;;8.27;;
66893;SDS011;53801;55.786;49.142;2023-08-06T02:45:56;11.63;;;8.13;;
66893;SDS011;53801;55.786;49.142;2023-08-06T02:48:21;16.42;;;8.60;;
66893;SDS011;53801;55.786;49.142;2023-08-06T02:50:47;13.27;;;8.23;;
66893;SDS011;53801;55.786;49.142;2023-08-06T02:53:12;15.77;;;9.13;;
66893;SDS011;53801;55.786;49.142;2023-08-06T02:55:38;19.87;;;9.57;;
66893;SDS011;53801;55.786;49.142;2023-08-06T02:58:03;16.53;;;9.87;;
66893;SDS011;53801;55.786;49.142;2023-08-06T03:00:28;15.97;;;9.33;;
66893;SDS011;53801;55.786;49.142;2023-08-06T03:02:54;19.13;;;9.23;;
66893;SDS011;53801;55.786;49.142;2023-08-06T03:05:20;12.85;;;8.27;;
66893;SDS011;53801;55.786;49.142;2023-08-06T03:07:45;16.35;;;8.75;;
66893;SDS011;53801;55.786;49.142;2023-08-06T03:10:11;11.90;;;8.40;;
66893;SDS011;53801;55.786;49.142;2023-08-06T03:12:37;10.68;;;7.70;;
66893;SDS011;53801;55.786;49.142;2023-08-06T03:15:02;10.77;;;7.77;;
66893;SDS011;53801;55.786;49.142;2023-08-06T03:17:29;12.88;;;8.18;;
66893;SDS011;53801;55.786;49.142;2023-08-06T03:19:54;11.37;;;7.33;;
66893;SDS011;53801;55.786;49.142;2023-08-06T03:22:20;13.00;;;8.50;;
66893;SDS011;53801;55.786;49.142;2023-08-06T03:24:45;11.75;;;8.00;;
66893;SDS011;53801;55.786;49.142;2023-08-06T03:27:11;16.00;;;7.93;;
66893;SDS011;53801;55.786;49.142;2023-08-06T03:29:36;12.37;;;8.33;;
66893;SDS011;53801;55.786;49.142;2023-08-06T03:32:05;11.63;;;8.32;;
66893;SDS011;53801;55.786;49.142;2023-08-06T03:34:31;13.17;;;8.60;;
66893;SDS011;53801;55.786;49.142;2023-08-06T03:36:56;11.83;;;8.57;;
66893;SDS011;53801;55.786;49.142;2023-08-06T03:39:21;12.35;;;8.18;;
66893;SDS011;53801;55.786;49.142;2023-08-06T03:41:47;11.67;;;8.47;;
66893;SDS011;53801;55.786;49.142;2023-08-06T03:44:12;12.90;;;7.90;;
66893;SDS011;53801;55.786;49.142;2023-08-06T03:46:38;12.13;;;7.83;;
66893;SDS011;53801;55.786;49.142;2023-08-06T03:49:03;14.40;;;8.80;;
66893;SDS011;53801;55.786;49.142;2023-08-06T03:51:29;15.17;;;7.97;;
66893;SDS011;53801;55.786;49.142;2023-08-06T03:53:54;12.57;;;7.93;;
66893;SDS011;53801;55.786;49.142;2023-08-06T03:56:20;11.20;;;7.90;;
66893;SDS011;53801;55.786;49.142;2023-08-06T03:58:45;11.57;;;7.57;;
66893;SDS011;53801;55.786;49.142;2023-08-06T04:01:10;11.00;;;7.57;;
66893;SDS011;53801;55.786;49.142;2023-08-06T04:03:36;11.17;;;7.47;;
66893;SDS011;53801;55.786;49.142;2023-08-06T04:06:02;9.60;;;7.43;;
66893;SDS011;53801;55.786;49.142;2023-08-06T04:08:28;9.32;;;7.10;;
66893;SDS011;53801;55.786;49.142;2023-08-06T04:10:53;10.57;;;7.27;;
66893;SDS011;53801;55.786;49.142;2023-08-06T04:13:19;9.13;;;7.18;;
66893;SDS011;53801;55.786;49.142;2023-08-06T04:15:45;10.20;;;7.30;;
66893;SDS011;53801;55.786;49.142;2023-08-06T04:18:10;10.68;;;7.28;;
66893;SDS011;53801;55.786;49.142;2023-08-06T04:20:42;9.43;;;6.82;;
66893;SDS011;53801;55.786;49.142;2023-08-06T04:23:07;10.00;;;6.53;;
66893;SDS011;53801;55.786;49.142;2023-08-06T04:25:33;7.43;;;6.30;;
66893;SDS011;53801;55.786;49.142;2023-08-06T04:27:58;7.70;;;6.90;;
66893;SDS011;53801;55.786;49.142;2023-08-06T04:30:24;8.93;;;7.57;;
66893;SDS011;53801;55.786;49.142;2023-08-06T04:32:49;7.70;;;6.90;;
66893;SDS011;53801;55.786;49.142;2023-08-06T04:35:15;8.15;;;7.32;;
66893;SDS011;53801;55.786;49.142;2023-08-06T04:37:40;8.00;;;7.30;;
66893;SDS011;53801;55.786;49.142;2023-08-06T04:40:06;6.77;;;6.13;;
66893;SDS011;53801;55.786;49.142;2023-08-06T04:42:32;7.70;;;6.82;;
66893;SDS011;53801;55.786;49.142;2023-08-06T04:44:57;7.07;;;6.47;;
66893;SDS011;53801;55.786;49.142;2023-08-06T04:47:23;9.20;;;7.37;;
66893;SDS011;53801;55.786;49.142;2023-08-06T04:49:50;9.27;;;7.72;;
66893;SDS011;53801;55.786;49.142;2023-08-06T04:52:18;8.38;;;7.68;;
66893;SDS011;53801;55.786;49.142;2023-08-06T04:54:43;8.70;;;7.90;;
66893;SDS011;53801;55.786;49.142;2023-08-06T04:57:09;8.73;;;7.93;;
66893;SDS011;53801;55.786;49.142;2023-08-06T04:59:35;9.52;;;8.73;;
66893;SDS011;53801;55.786;49.142;2023-08-06T05:02:00;9.20;;;8.23;;
66893;SDS011;53801;55.786;49.142;2023-08-06T05:04:26;8.85;;;8.05;;
66893;SDS011;53801;55.786;49.142;2023-08-06T05:06:51;9.23;;;8.33;;
66893;SDS011;53801;55.786;49.142;2023-08-06T05:09:17;9.77;;;8.77;;
66893;SDS011;53801;55.786;49.142;2023-08-06T05:11:42;11.02;;;7.82;;
66893;SDS011;53801;55.786;49.142;2023-08-06T05:14:08;9.70;;;8.70;;
66893;SDS011;53801;55.786;49.142;2023-08-06T05:16:33;9.13;;;8.23;;
66893;SDS011;53801;55.786;49.142;2023-08-06T05:18:59;9.33;;;8.40;;
66893;SDS011;53801;55.786;49.142;2023-08-06T05:21:24;8.10;;;7.40;;
66893;SDS011;53801;55.786;49.142;2023-08-06T05:23:50;12.37;;;7.83;;
66893;SDS011;53801;55.786;49.142;2023-08-06T05:26:15;8.50;;;7.80;;
66893;SDS011;53801;55.786;49.142;2023-08-06T05:28:43;8.10;;;7.28;;
66893;SDS011;53801;55.786;49.142;2023-08-06T05:31:09;7.50;;;6.80;;
66893;SDS011;53801;55.786;49.142;2023-08-06T05:33:34;8.80;;;8.00;;
66893;SDS011;53801;55.786;49.142;2023-08-06T05:36:00;9.10;;;8.20;;
66893;SDS011;53801;55.786;49.142;2023-08-06T05:38:25;8.23;;;7.53;;
66893;SDS011;53801;55.786;49.142;2023-08-06T05:40:51;9.97;;;9.03;;
66893;SDS011;53801;55.786;49.142;2023-08-06T05:43:16;11.90;;;10.02;;
66893;SDS011;53801;55.786;49.142;2023-08-06T05:45:45;8.37;;;7.67;;
66893;SDS011;53801;55.786;49.142;2023-08-06T05:48:11;8.52;;;7.93;;
66893;SDS011;53801;55.786;49.142;2023-08-06T05:50:37;7.10;;;6.50;;
66893;SDS011;53801;55.786;49.142;2023-08-06T05:53:02;7.43;;;6.83;;
66893;SDS011;53801;55.786;49.142;2023-08-06T05:55:28;8.30;;;7.60;;
66893;SDS011;53801;55.786;49.142;2023-08-06T05:57:56;9.63;;;8.93;;
66893;SDS011;53801;55.786;49.142;2023-08-06T06:00:21;10.23;;;8.82;;
66893;SDS011;53801;55.786;49.142;2023-08-06T06:02:47;8.97;;;8.17;;
66893;SDS011;53801;55.786;49.142;2023-08-06T06:05:16;8.93;;;8.23;;
66893;SDS011;53801;55.786;49.142;2023-08-06T06:07:41;8.05;;;7.55;;
66893;SDS011;53801;55.786;49.142;2023-08-06T06:10:07;9.30;;;8.57;;
66893;SDS011;53801;55.786;49.142;2023-08-06T06:12:33;7.53;;;7.03;;
66893;SDS011;53801;55.786;49.142;2023-08-06T06:14:58;7.53;;;6.93;;
66893;SDS011;53801;55.786;49.142;2023-08-06T06:17:26;7.82;;;7.07;;
66893;SDS011;53801;55.786;49.142;2023-08-06T06:19:51;7.53;;;6.82;;
66893;SDS011;53801;55.786;49.142;2023-08-06T06:22:17;8.37;;;7.67;;
66893;SDS011;53801;55.786;49.142;2023-08-06T06:24:42;8.40;;;7.60;;
66893;SDS011;53801;55.786;49.142;2023-08-06T06:27:08;9.13;;;8.32;;
66893;SDS011;53801;55.786;49.142;2023-08-06T06:29:33;9.20;;;8.40;;
66893;SDS011;53801;55.786;49.142;2023-08-06T06:31:59;8.80;;;8.27;;
66893;SDS011;53801;55.786;49.142;2023-08-06T06:34:24;8.77;;;8.07;;
66893;SDS011;53801;55.786;49.142;2023-08-06T06:37:05;7.28;;;6.70;;
66893;SDS011;53801;55.786;49.142;2023-08-06T06:39:39;8.76;;;8.10;;
66893;SDS011;53801;55.786;49.142;2023-08-06T06:42:05;8.43;;;7.83;;
66893;SDS011;53801;55.786;49.142;2023-08-06T06:44:30;8.77;;;8.07;;
66893;SDS011;53801;55.786;49.142;2023-08-06T06:46:58;8.55;;;6.93;;
66893;SDS011;53801;55.786;49.142;2023-08-06T06:49:23;8.70;;;8.00;;
66893;SDS011;53801;55.786;49.142;2023-08-06T06:51:49;7.70;;;6.93;;
66893;SDS011;53801;55.786;49.142;2023-08-06T06:54:15;7.13;;;6.63;;
66893;SDS011;53801;55.786;49.142;2023-08-06T06:56:41;9.07;;;8.47;;
66893;SDS011;53801;55.786;49.142;2023-08-06T06:59:07;7.80;;;7.18;;
66893;SDS011;53801;55.786;49.142;2023-08-06T07:01:32;7.17;;;6.47;;
66893;SDS011;53801;55.786;49.142;2023-08-06T07:03:58;10.87;;;10.00;;
66893;SDS011;53801;55.786;49.142;2023-08-06T07:06:23;7.35;;;6.65;;
66893;SDS011;53801;55.786;49.142;2023-08-06T07:08:49;7.73;;;6.97;;
66893;SDS011;53801;55.786;49.142;2023-08-06T07:11:14;8.20;;;7.50;;
66893;SDS011;53801;55.786;49.142;2023-08-06T07:13:39;8.70;;;8.07;;
66893;SDS011;53801;55.786;49.142;2023-08-06T07:16:05;9.10;;;8.50;;
66893;SDS011;53801;55.786;49.142;2023-08-06T07:18:30;8.20;;;7.47;;
66893;SDS011;53801;55.786;49.142;2023-08-06T07:20:56;10.40;;;9.40;;
66893;SDS011;53801;55.786;49.142;2023-08-06T07:23:22;8.75;;;8.00;;
66893;SDS011;53801;55.786;49.142;2023-08-06T07:25:48;9.13;;;8.32;;
66893;SDS011;53801;55.786;49.142;2023-08-06T07:28:14;8.98;;;8.38;;
66893;SDS011;53801;55.786;49.142;2023-08-06T07:30:40;10.93;;;7.80;;
66893;SDS011;53801;55.786;49.142;2023-08-06T07:33:06;12.55;;;11.25;;
66893;SDS011;53801;55.786;49.142;2023-08-06T07:35:32;9.38;;;8.57;;
66893;SDS011;53801;55.786;49.142;2023-08-06T07:37:57;19.23;;;8.77;;
66893;SDS011;53801;55.786;49.142;2023-08-06T07:40:23;10.32;;;9.27;;
66893;SDS011;53801;55.786;49.142;2023-08-06T07:42:48;10.07;;;9.23;;
66893;SDS011;53801;55.786;49.142;2023-08-06T07:45:14;11.57;;;9.07;;
66893;SDS011;53801;55.786;49.142;2023-08-06T07:47:39;10.80;;;10.00;;
66893;SDS011;53801;55.786;49.142;2023-08-06T07:50:05;8.90;;;8.20;;
66893;SDS011;53801;55.786;49.142;2023-08-06T07:52:30;9.40;;;8.70;;
66893;SDS011;53801;55.786;49.142;2023-08-06T07:54:56;9.83;;;8.93;;
66893;SDS011;53801;55.786;49.142;2023-08-06T07:57:21;7.28;;;6.75;;
66893;SDS011;53801;55.786;49.142;2023-08-06T07:59:47;7.80;;;7.30;;
66893;SDS011;53801;55.786;49.142;2023-08-06T08:02:12;9.00;;;7.33;;
66893;SDS011;53801;55.786;49.142;2023-08-06T08:04:38;8.63;;;8.03;;
66893;SDS011;53801;55.786;49.142;2023-08-06T08:07:03;7.03;;;6.40;;
66893;SDS011;53801;55.786;49.142;2023-08-06T08:09:29;11.20;;;8.33;;
66893;SDS011;53801;55.786;49.142;2023-08-06T08:11:54;9.43;;;6.93;;
66893;SDS011;53801;55.786;49.142;2023-08-06T08:14:20;8.30;;;7.70;;
66893;SDS011;53801;55.786;49.142;2023-08-06T08:16:45;7.65;;;6.95;;
66893;SDS011;53801;55.786;49.142;2023-08-06T08:19:11;7.77;;;6.97;;
66893;SDS011;53801;55.786;49.142;2023-08-06T08:21:36;9.23;;;8.60;;
66893;SDS011;53801;55.786;49.142;2023-08-06T08:24:03;8.93;;;8.25;;
66893;SDS011;53801;55.786;49.142;2023-08-06T08:26:29;7.67;;;6.97;;
66893;SDS011;53801;55.786;49.142;2023-08-06T08:28:54;8.95;;;8.30;;
66893;SDS011;53801;55.786;49.142;2023-08-06T08:31:20;9.30;;;8.57;;
66893;SDS011;53801;55.786;49.142;2023-08-06T08:33:48;9.20;;;8.50;;
66893;SDS011;53801;55.786;49.142;2023-08-06T08:36:13;9.40;;;8.80;;
66893;SDS011;53801;55.786;49.142;2023-08-06T08:38:39;9.82;;;8.95;;
66893;SDS011;53801;55.786;49.142;2023-08-06T08:41:09;8.43;;;7.63;;
66893;SDS011;53801;55.786;49.142;2023-08-06T08:43:35;9.32;;;8.63;;
66893;SDS011;53801;55.786;49.142;2023-08-06T08:46:00;10.70;;;9.83;;
66893;SDS011;53801;55.786;49.142;2023-08-06T08:48:27;9.85;;;9.15;;
66893;SDS011;53801;55.786;49.142;2023-08-06T08:50:53;9.23;;;8.48;;
66893;SDS011;53801;55.786;49.142;2023-08-06T08:53:18;9.20;;;8.60;;
66893;SDS011;53801;55.786;49.142;2023-08-06T08:55:46;8.23;;;7.57;;
66893;SDS011;53801;55.786;49.142;2023-08-06T08:58:12;9.00;;;8.25;;
66893;SDS011;53801;55.786;49.142;2023-08-06T09:00:38;9.03;;;8.43;;
66893;SDS011;53801;55.786;49.142;2023-08-06T09:03:06;8.95;;;8.23;;
66893;SDS011;53801;55.786;49.142;2023-08-06T09:05:31;9.38;;;8.48;;
66893;SDS011;53801;55.786;49.142;2023-08-06T09:08:03;8.43;;;7.85;;
66893;SDS011;53801;55.786;49.142;2023-08-06T09:10:29;8.65;;;7.72;;
66893;SDS011;53801;55.786;49.142;2023-08-06T09:12:55;8.20;;;7.53;;
66893;SDS011;53801;55.786;49.142;2023-08-06T09:15:24;8.88;;;7.10;;
66893;SDS011;53801;55.786;49.142;2023-08-06T09:17:53;8.02;;;7.43;;
66893;SDS011;53801;55.786;49.142;2023-08-06T09:20:18;5.75;;;5.25;;
66893;SDS011;53801;55.786;49.142;2023-08-06T09:22:44;6.18;;;5.72;;
66893;SDS011;53801;55.786;49.142;2023-08-06T09:25:10;8.77;;;7.88;;
66893;SDS011;53801;55.786;49.142;2023-08-06T09:27:37;6.97;;;6.30;;
66893;SDS011;53801;55.786;49.142;2023-08-06T09:30:03;8.15;;;7.65;;
66893;SDS011;53801;55.786;49.142;2023-08-06T09:32:46;7.95;;;6.32;;
66893;SDS011;53801;55.786;49.142;2023-08-06T09:35:16;8.90;;;7.00;;
66893;SDS011;53801;55.786;49.142;2023-08-06T09:37:42;8.82;;;8.02;;
66893;SDS011;53801;55.786;49.142;2023-08-06T09:42:52;8.32;;;7.63;;
66893;SDS011;53801;55.786;49.142;2023-08-06T09:45:17;8.97;;;8.30;;
66893;SDS011;53801;55.786;49.142;2023-08-06T09:47:43;7.23;;;6.73;;
66893;SDS011;53801;55.786;49.142;2023-08-06T09:53:02;5.33;;;4.83;;
66893;SDS011;53801;55.786;49.142;2023-08-06T09:55:28;7.43;;;6.82;;
66893;SDS011;53801;55.786;49.142;2023-08-06T09:57:57;5.82;;;4.82;;
66893;SDS011;53801;55.786;49.142;2023-08-06T10:00:23;7.85;;;7.20;;
66893;SDS011;53801;55.786;49.142;2023-08-06T10:02:49;7.03;;;6.53;;
66893;SDS011;53801;55.786;49.142;2023-08-06T10:05:16;7.93;;;6.30;;
66893;SDS011;53801;55.786;49.142;2023-08-06T10:07:42;8.10;;;7.37;;
66893;SDS011;53801;55.786;49.142;2023-08-06T10:10:08;7.03;;;6.45;;
66893;SDS011;53801;55.786;49.142;2023-08-06T10:12:36;6.95;;;6.32;;
66893;SDS011;53801;55.786;49.142;2023-08-06T10:15:03;7.90;;;7.00;;
66893;SDS011;53801;55.786;49.142;2023-08-06T10:17:31;6.88;;;6.25;;
66893;SDS011;53801;55.786;49.142;2023-08-06T10:19:58;6.93;;;5.43;;
66893;SDS011;53801;55.786;49.142;2023-08-06T10:22:24;4.10;;;3.78;;
66893;SDS011;53801;55.786;49.142;2023-08-06T10:29:52;6.28;;;5.72;;
66893;SDS011;53801;55.786;49.142;2023-08-06T10:32:18;6.47;;;5.53;;
66893;SDS011;53801;55.786;49.142;2023-08-06T10:37:18;5.47;;;3.83;;
66893;SDS011;53801;55.786;49.142;2023-08-06T10:39:50;4.65;;;3.55;;
66893;SDS011;53801;55.786;49.142;2023-08-06T10:42:22;4.30;;;3.67;;
66893;SDS011;53801;55.786;49.142;2023-08-06T10:45:11;4.47;;;3.90;;
66893;SDS011;53801;55.786;49.142;2023-08-06T10:47:40;5.93;;;3.50;;
66893;SDS011;53801;55.786;49.142;2023-08-06T10:50:06;3.60;;;3.20;;
66893;SDS011;53801;55.786;49.142;2023-08-06T10:52:32;4.90;;;3.35;;
66893;SDS011;53801;55.786;49.142;2023-08-06T10:54:58;5.43;;;3.33;;
66893;SDS011;53801;55.786;49.142;2023-08-06T10:57:24;4.97;;;2.75;;
66893;SDS011;53801;55.786;49.142;2023-08-06T10:59:49;5.60;;;3.10;;
66893;SDS011;53801;55.786;49.142;2023-08-06T11:02:16;5.68;;;2.75;;
66893;SDS011;53801;55.786;49.142;2023-08-06T11:04:41;3.57;;;3.20;;
66893;SDS011;53801;55.786;49.142;2023-08-06T11:07:11;5.13;;;3.13;;
66893;SDS011;53801;55.786;49.142;2023-08-06T11:09:38;3.15;;;2.80;;
66893;SDS011;53801;55.786;49.142;2023-08-06T11:12:08;4.97;;;3.00;;
66893;SDS011;53801;55.786;49.142;2023-08-06T11:14:34;6.80;;;3.17;;
66893;SDS011;53801;55.786;49.142;2023-08-06T11:16:59;3.33;;;2.60;;
66893;SDS011;53801;55.786;49.142;2023-08-06T11:19:25;4.20;;;2.60;;
66893;SDS011;53801;55.786;49.142;2023-08-06T11:21:51;3.70;;;2.43;;
66893;SDS011;53801;55.786;49.142;2023-08-06T11:24:16;2.83;;;2.53;;
66893;SDS011;53801;55.786;49.142;2023-08-06T11:26:42;3.50;;;2.83;;
66893;SDS011;53801;55.786;49.142;2023-08-06T11:29:09;2.83;;;2.63;;
66893;SDS011;53801;55.786;49.142;2023-08-06T11:31:35;4.53;;;2.67;;
66893;SDS011;53801;55.786;49.142;2023-08-06T11:34:01;4.43;;;2.88;;
66893;SDS011;53801;55.786;49.142;2023-08-06T11:36:34;3.43;;;2.23;;
66893;SDS011;53801;55.786;49.142;2023-08-06T11:38:59;6.53;;;2.78;;
66893;SDS011;53801;55.786;49.142;2023-08-06T11:41:27;2.83;;;2.50;;
66893;SDS011;53801;55.786;49.142;2023-08-06T11:43:52;4.38;;;2.97;;
66893;SDS011;53801;55.786;49.142;2023-08-06T11:46:18;5.00;;;2.90;;
66893;SDS011;53801;55.786;49.142;2023-08-06T11:51:35;4.10;;;2.33;;
66893;SDS011;53801;55.786;49.142;2023-08-06T11:54:01;2.60;;;2.37;;
66893;SDS011;53801;55.786;49.142;2023-08-06T11:56:27;3.83;;;2.72;;
66893;SDS011;53801;55.786;49.142;2023-08-06T11:58:56;3.57;;;2.60;;
66893;SDS011;53801;55.786;49.142;2023-08-06T12:01:22;5.13;;;2.80;;
66893;SDS011;53801;55.786;49.142;2023-08-06T12:03:47;3.20;;;2.20;;
66893;SDS011;53801;55.786;49.142;2023-08-06T12:06:13;2.67;;;2.43;;
66893;SDS011;53801;55.786;49.142;2023-08-06T12:08:38;2.85;;;2.40;;
66893;SDS011;53801;55.786;49.142;2023-08-06T12:11:04;3.93;;;2.50;;
66893;SDS011;53801;55.786;49.142;2023-08-06T12:13:29;2.67;;;2.43;;
66893;SDS011;53801;55.786;49.142;2023-08-06T12:15:54;5.47;;;2.40;;
66893;SDS011;53801;55.786;49.142;2023-08-06T12:18:30;3.88;;;2.42;;
66893;SDS011;53801;55.786;49.142;2023-08-06T12:21:06;4.95;;;2.63;;
66893;SDS011;53801;55.786;49.142;2023-08-06T12:23:32;6.53;;;2.73;;
66893;SDS011;53801;55.786;49.142;2023-08-06T12:25:58;4.38;;;2.40;;
66893;SDS011;53801;55.786;49.142;2023-08-06T12:28:23;3.10;;;2.50;;
66893;SDS011;53801;55.786;49.142;2023-08-06T12:30:49;4.07;;;2.20;;
66893;SDS011;53801;55.786;49.142;2023-08-06T12:33:15;2.30;;;2.10;;
66893;SDS011;53801;55.786;49.142;2023-08-06T12:35:41;2.45;;;2.20;;
66893;SDS011;53801;55.786;49.142;2023-08-06T12:38:06;6.27;;;2.07;;
66893;SDS011;53801;55.786;49.142;2023-08-06T12:40:32;2.90;;;2.40;;
66893;SDS011;53801;55.786;49.142;2023-08-06T12:43:10;2.47;;;2.10;;
66893;SDS011;53801;55.786;49.142;2023-08-06T12:45:36;3.47;;;2.27;;
66893;SDS011;53801;55.786;49.142;2023-08-06T12:48:04;5.07;;;2.33;;
66893;SDS011;53801;55.786;49.142;2023-08-06T12:50:29;3.27;;;2.23;;
66893;SDS011;53801;55.786;49.142;2023-08-06T12:52:55;4.63;;;2.30;;
66893;SDS011;53801;55.786;49.142;2023-08-06T12:55:20;4.38;;;2.47;;
66893;SDS011;53801;55.786;49.142;2023-08-06T12:57:46;7.00;;;2.13;;
66893;SDS011;53801;55.786;49.142;2023-08-06T13:00:11;2.90;;;2.40;;
66893;SDS011;53801;55.786;49.142;2023-08-06T13:02:37;2.88;;;2.40;;
66893;SDS011;53801;55.786;49.142;2023-08-06T13:05:02;3.03;;;2.30;;
66893;SDS011;53801;55.786;49.142;2023-08-06T13:07:31;2.85;;;2.15;;
66893;SDS011;53801;55.786;49.142;2023-08-06T13:09:56;6.53;;;2.57;;
66893;SDS011;53801;55.786;49.142;2023-08-06T13:12:21;4.28;;;2.30;;
66893;SDS011;53801;55.786;49.142;2023-08-06T13:14:48;4.30;;;2.50;;
66893;SDS011;53801;55.786;49.142;2023-08-06T13:17:16;3.05;;;2.72;;
66893;SDS011;53801;55.786;49.142;2023-08-06T13:19:42;3.20;;;2.50;;
66893;SDS011;53801;55.786;49.142;2023-08-06T13:22:07;3.93;;;2.70;;
66893;SDS011;53801;55.786;49.142;2023-08-06T13:24:34;2.85;;;2.10;;
66893;SDS011;53801;55.786;49.142;2023-08-06T13:27:02;3.03;;;2.20;;
66893;SDS011;53801;55.786;49.142;2023-08-06T13:29:28;4.83;;;2.47;;
66893;SDS011;53801;55.786;49.142;2023-08-06T13:31:54;4.45;;;3.00;;
66893;SDS011;53801;55.786;49.142;2023-08-06T13:34:19;6.63;;;2.50;;
66893;SDS011;53801;55.786;49.142;2023-08-06T13:36:45;5.83;;;2.83;;
66893;SDS011;53801;55.786;49.142;2023-08-06T13:39:10;2.78;;;2.47;;
66893;SDS011;53801;55.786;49.142;2023-08-06T13:41:37;3.97;;;2.50;;
66893;SDS011;53801;55.786;49.142;2023-08-06T13:44:02;3.28;;;2.38;;
66893;SDS011;53801;55.786;49.142;2023-08-06T13:46:28;5.83;;;2.63;;
66893;SDS011;53801;55.786;49.142;2023-08-06T13:48:53;5.32;;;2.60;;
66893;SDS011;53801;55.786;49.142;2023-08-06T13:51:21;7.30;;;2.60;;
66893;SDS011;53801;55.786;49.142;2023-08-06T13:53:47;2.65;;;2.28;;
66893;SDS011;53801;55.786;49.142;2023-08-06T13:56:12;3.10;;;2.30;;
66893;SDS011;53801;55.786;49.142;2023-08-06T13:58:40;3.85;;;2.30;;
66893;SDS011;53801;55.786;49.142;2023-08-06T14:01:09;5.80;;;2.40;;
66893;SDS011;53801;55.786;49.142;2023-08-06T14:03:34;3.85;;;2.30;;
66893;SDS011;53801;55.786;49.142;2023-08-06T14:06:00;4.20;;;2.47;;
66893;SDS011;53801;55.786;49.142;2023-08-06T14:08:25;2.67;;;2.13;;
66893;SDS011;53801;55.786;49.142;2023-08-06T14:10:51;3.07;;;2.03;;
66893;SDS011;53801;55.786;49.142;2023-08-06T14:13:26;5.15;;;2.10;;
66893;SDS011;53801;55.786;49.142;2023-08-06T14:15:54;7.05;;;2.33;;
66893;SDS011;53801;55.786;49.142;2023-08-06T14:18:19;2.93;;;1.77;;
66893;SDS011;53801;55.786;49.142;2023-08-06T14:20:45;6.28;;;2.30;;
66893;SDS011;53801;55.786;49.142;2023-08-06T14:23:10;2.83;;;2.30;;
66893;SDS011;53801;55.786;49.142;2023-08-06T14:28:04;4.60;;;2.33;;
66893;SDS011;53801;55.786;49.142;2023-08-06T14:30:32;6.97;;;2.45;;
66893;SDS011;53801;55.786;49.142;2023-08-06T14:32:58;4.57;;;2.42;;
66893;SDS011;53801;55.786;49.142;2023-08-06T14:35:26;6.05;;;2.50;;
66893;SDS011;53801;55.786;49.142;2023-08-06T14:37:51;3.37;;;1.97;;
66893;SDS011;53801;55.786;49.142;2023-08-06T14:40:16;4.43;;;2.43;;
66893;SDS011;53801;55.786;49.142;2023-08-06T14:42:42;4.50;;;3.00;;
66893;SDS011;53801;55.786;49.142;2023-08-06T14:45:07;4.10;;;2.28;;
66893;SDS011;53801;55.786;49.142;2023-08-06T14:47:33;4.00;;;2.40;;